Time;durP1;ratioP1;P1;durP2;ratioP2;P2;SDS_P1;SDS_P2;PMS_P1;PMS_P2;Temp;Humidity;BMP_temperature;BMP_pressure;BME280_temperature;BME280_humidity;BME280_pressure;Samples;Min_cycle;Max_cycle;Signal;HPM_P1;HPM_P2
2022/01/31 00:02:14;;;;;;;9.30;3.78;;;3.70;99.90;;;;;;5036251;28;20152;-81
2022/01/31 00:04:41;;;;;;;16.13;4.90;;;3.80;99.90;;;;;;5035273;28;20389;-83
2022/01/31 00:07:08;;;;;;;13.45;3.65;;;3.70;99.90;;;;;;5035745;28;20132;-82
2022/01/31 00:09:33;;;;;;;15.35;4.43;;;3.70;99.90;;;;;;5035418;28;20045;-82
2022/01/31 00:12:10;;;;;;;11.98;4.95;;;3.70;99.90;;;;;;5035215;28;20553;-81
2022/01/31 00:17:03;;;;;;;12.55;5.22;;;4.00;99.90;;;;;;5036060;28;20050;-81
2022/01/31 00:19:29;;;;;;;15.27;4.85;;;3.80;99.90;;;;;;5035999;28;20046;-81
2022/01/31 00:21:55;;;;;;;16.33;4.68;;;3.80;99.90;;;;;;5036756;28;20056;-82
2022/01/31 00:24:20;;;;;;;14.20;5.10;;;3.80;99.90;;;;;;5036005;28;20042;-81
2022/01/31 00:26:46;;;;;;;14.43;6.20;;;3.80;99.90;;;;;;5036363;28;20045;-81
2022/01/31 00:29:12;;;;;;;14.02;4.57;;;3.90;99.90;;;;;;5035343;28;20075;-80
2022/01/31 00:31:38;;;;;;;18.77;5.38;;;4.00;99.90;;;;;;5018465;28;20045;-81
2022/01/31 00:34:04;;;;;;;14.10;4.65;;;3.90;99.90;;;;;;5035076;28;20038;-80
2022/01/31 00:36:29;;;;;;;15.43;4.63;;;4.30;99.90;;;;;;5035458;28;20117;-80
2022/01/31 00:38:55;;;;;;;10.32;4.18;;;3.90;99.90;;;;;;5019086;28;20364;-80
2022/01/31 00:41:21;;;;;;;17.85;4.30;;;4.20;99.90;;;;;;5035757;28;20131;-80
2022/01/31 00:43:57;;;;;;;13.40;4.40;;;3.80;99.90;;;;;;5034560;28;20048;-81
2022/01/31 00:46:29;;;;;;;13.30;4.63;;;3.80;99.90;;;;;;5035069;28;20397;-82
2022/01/31 00:48:54;;;;;;;12.90;4.60;;;4.20;99.90;;;;;;5034478;28;20094;-81
2022/01/31 00:51:20;;;;;;;14.30;4.95;;;3.80;99.90;;;;;;5034551;28;20045;-81
2022/01/31 00:53:46;;;;;;;13.82;4.95;;;4.10;99.90;;;;;;5035636;28;20041;-80
2022/01/31 00:56:11;;;;;;;18.58;5.82;;;3.90;99.90;;;;;;5034670;28;20398;-81
2022/01/31 00:58:37;;;;;;;11.18;4.22;;;3.80;99.90;;;;;;5036008;28;20056;-81
2022/01/31 01:01:03;;;;;;;13.68;5.68;;;3.80;99.90;;;;;;5034401;28;20057;-80
2022/01/31 01:03:28;;;;;;;16.05;4.43;;;4.40;99.90;;;;;;5035541;28;20045;-83
2022/01/31 01:05:54;;;;;;;13.65;4.88;;;3.90;99.90;;;;;;5035902;28;20474;-81
2022/01/31 01:08:20;;;;;;;15.55;4.95;;;4.70;99.90;;;;;;5034022;28;20041;-81
2022/01/31 01:10:46;;;;;;;12.98;5.15;;;3.90;99.90;;;;;;5034024;28;20057;-80
2022/01/31 01:13:12;;;;;;;13.07;4.35;;;3.90;99.90;;;;;;5035214;28;20044;-80
2022/01/31 01:15:38;;;;;;;16.10;6.15;;;4.10;99.90;;;;;;5034125;28;20482;-81
2022/01/31 01:18:04;;;;;;;13.82;5.00;;;3.80;99.90;;;;;;5034884;28;20124;-81
2022/01/31 01:20:30;;;;;;;13.05;5.32;;;4.40;99.90;;;;;;5034316;28;20057;-81
2022/01/31 01:22:56;;;;;;;15.13;6.03;;;3.80;99.90;;;;;;5035015;28;20498;-81
2022/01/31 01:25:21;;;;;;;9.35;4.35;;;3.80;99.90;;;;;;5033935;28;20054;-80
2022/01/31 01:27:51;;;;;;;15.57;4.75;;;3.80;99.90;;;;;;5035040;28;20092;-82
2022/01/31 01:30:17;;;;;;;14.88;5.20;;;3.80;99.90;;;;;;5017412;28;20049;-79
2022/01/31 01:35:22;;;;;;;13.10;5.97;;;4.00;99.90;;;;;;5034587;28;20052;-82
2022/01/31 01:37:48;;;;;;;15.45;6.70;;;3.90;99.90;;;;;;5017320;28;20128;-82
2022/01/31 01:40:13;;;;;;;16.65;6.47;;;3.60;99.90;;;;;;5032611;28;20148;-82
2022/01/31 01:42:41;;;;;;;13.32;6.10;;;3.50;99.90;;;;;;5033832;28;20529;-82
2022/01/31 01:45:08;;;;;;;14.52;6.20;;;3.50;99.90;;;;;;5034400;28;20486;-81
2022/01/31 01:47:33;;;;;;;13.95;6.15;;;3.40;99.90;;;;;;5033824;28;20053;-82
2022/01/31 01:49:59;;;;;;;17.05;7.72;;;4.00;99.90;;;;;;5034448;28;20047;-82
2022/01/31 01:52:25;;;;;;;18.58;7.10;;;3.60;99.90;;;;;;5035056;28;20049;-81
2022/01/31 01:54:51;;;;;;;17.63;6.97;;;3.20;99.90;;;;;;5034992;28;20045;-82
2022/01/31 01:57:19;;;;;;;17.58;7.70;;;3.20;99.90;;;;;;5034614;28;20053;-82
2022/01/31 01:59:46;;;;;;;16.70;8.50;;;3.10;99.90;;;;;;5034427;28;20041;-81
2022/01/31 02:02:18;;;;;;;18.27;9.68;;;3.10;99.90;;;;;;5120180;27;20388;-69
2022/01/31 02:04:44;;;;;;;19.30;9.07;;;3.00;99.90;;;;;;5113860;28;20557;-68
2022/01/31 02:07:12;;;;;;;20.00;9.77;;;2.90;99.90;;;;;;5104727;28;20041;-69
2022/01/31 02:09:43;;;;;;;21.88;10.68;;;2.90;99.90;;;;;;5100350;28;20059;-67
2022/01/31 02:12:10;;;;;;;22.73;10.63;;;2.80;99.90;;;;;;5113394;28;20075;-69
2022/01/31 02:14:36;;;;;;;18.73;10.35;;;2.70;99.90;;;;;;5102210;28;20059;-70
2022/01/31 02:17:03;;;;;;;19.02;9.10;;;2.50;99.90;;;;;;5107427;28;20040;-71
2022/01/31 02:19:28;;;;;;;18.73;9.30;;;2.40;99.90;;;;;;5098050;28;20048;-70
2022/01/31 02:21:54;;;;;;;24.02;12.85;;;2.40;99.90;;;;;;5111141;28;20043;-67
2022/01/31 02:24:21;;;;;;;18.88;10.70;;;2.20;99.90;;;;;;5107212;28;20040;-69
2022/01/31 02:26:46;;;;;;;18.48;11.23;;;2.50;99.90;;;;;;5116838;28;20043;-68
2022/01/31 02:29:12;;;;;;;26.73;12.80;;;2.20;99.90;;;;;;5103398;28;20090;-67
2022/01/31 02:31:46;;;;;;;20.50;11.52;;;2.30;99.90;;;;;;5081074;28;20045;-67
2022/01/31 02:34:11;;;;;;;22.90;11.48;;;2.10;99.90;;;;;;5106405;28;20107;-68
2022/01/31 02:36:38;;;;;;;23.50;11.27;;;2.10;99.90;;;;;;5098187;28;20062;-68
2022/01/31 02:39:08;;;;;;;26.67;12.15;;;2.10;99.90;;;;;;5102934;28;20048;-68
2022/01/31 02:41:45;;;;;;;24.10;10.77;;;2.10;99.90;;;;;;5095440;28;20055;-68
2022/01/31 02:44:15;;;;;;;26.73;12.40;;;2.20;99.90;;;;;;5093577;28;20060;-68
2022/01/31 02:46:50;;;;;;;25.30;10.68;;;2.20;99.90;;;;;;5096811;28;20044;-69
2022/01/31 02:49:19;;;;;;;27.67;13.47;;;2.30;99.90;;;;;;5098936;28;20047;-68
2022/01/31 02:51:49;;;;;;;22.65;11.07;;;2.30;99.90;;;;;;5098763;28;20044;-69
2022/01/31 02:54:15;;;;;;;23.88;13.23;;;2.30;99.90;;;;;;5098617;28;20048;-69
2022/01/31 02:56:41;;;;;;;24.48;10.52;;;2.40;99.90;;;;;;5097893;28;20048;-70
2022/01/31 02:59:07;;;;;;;14.43;9.57;;;2.40;99.90;;;;;;5099615;28;20101;-69
2022/01/31 03:01:39;;;;;;;17.92;10.65;;;2.50;99.90;;;;;;5097037;28;20094;-69
2022/01/31 03:04:05;;;;;;;22.20;12.23;;;2.50;99.90;;;;;;5101801;28;20053;-69
2022/01/31 03:06:31;;;;;;;16.30;9.45;;;2.80;99.90;;;;;;5117180;28;20048;-69
2022/01/31 03:08:57;;;;;;;15.85;8.25;;;2.50;99.90;;;;;;5098112;28;20048;-70
2022/01/31 03:11:23;;;;;;;19.83;10.00;;;2.50;99.90;;;;;;5104764;28;20052;-68
2022/01/31 03:13:48;;;;;;;13.73;8.70;;;2.80;99.90;;;;;;5100155;28;20062;-69
2022/01/31 03:16:14;;;;;;;18.95;9.25;;;2.50;99.90;;;;;;5089930;28;20045;-69
2022/01/31 03:18:40;;;;;;;15.07;8.30;;;2.40;99.90;;;;;;5084443;28;20063;-70
2022/01/31 03:21:05;;;;;;;14.95;9.05;;;2.40;99.90;;;;;;5097193;28;20048;-69
2022/01/31 03:23:33;;;;;;;11.98;7.97;;;2.90;99.90;;;;;;5067598;28;20527;-69
2022/01/31 03:25:59;;;;;;;16.00;8.82;;;2.40;99.90;;;;;;5081884;28;20044;-69
2022/01/31 03:28:24;;;;;;;15.35;10.02;;;2.40;99.90;;;;;;5088814;28;20041;-69
2022/01/31 03:30:51;;;;;;;16.45;9.60;;;2.60;99.90;;;;;;5090452;28;20040;-68
2022/01/31 03:33:17;;;;;;;15.43;7.85;;;2.40;99.90;;;;;;5087866;28;20047;-68
2022/01/31 03:35:43;;;;;;;15.20;8.15;;;2.40;99.90;;;;;;5088305;28;20108;-71
2022/01/31 03:38:09;;;;;;;11.10;7.70;;;2.50;99.90;;;;;;5080743;28;20090;-71
2022/01/31 03:40:34;;;;;;;14.05;7.72;;;2.40;99.90;;;;;;5082765;28;20043;-69
2022/01/31 03:43:00;;;;;;;13.82;8.15;;;2.40;99.90;;;;;;5081554;28;20486;-68
2022/01/31 03:45:32;;;;;;;13.38;7.30;;;2.40;99.90;;;;;;5082240;28;20044;-71
2022/01/31 03:48:00;;;;;;;15.27;6.45;;;2.40;99.90;;;;;;5081986;28;20072;-70
2022/01/31 03:50:26;;;;;;;14.18;8.75;;;2.40;99.90;;;;;;5080042;28;20055;-70
2022/01/31 03:52:53;;;;;;;15.98;8.38;;;2.40;99.90;;;;;;5088427;28;20482;-70
2022/01/31 03:55:20;;;;;;;13.82;7.50;;;2.50;99.90;;;;;;5092810;28;20033;-69
2022/01/31 03:57:46;;;;;;;14.73;8.00;;;2.50;99.90;;;;;;5082488;28;20068;-70
2022/01/31 04:00:14;;;;;;;16.90;9.35;;;2.60;99.90;;;;;;5068156;28;20053;-69
2022/01/31 04:02:41;;;;;;;16.08;9.77;;;2.70;99.90;;;;;;5095371;28;20055;-70
2022/01/31 04:05:07;;;;;;;12.65;7.68;;;2.70;99.90;;;;;;5103614;28;20048;-68
2022/01/31 04:07:34;;;;;;;19.60;9.75;;;2.80;99.90;;;;;;5084173;28;20068;-68
2022/01/31 04:10:00;;;;;;;17.42;9.30;;;2.80;99.90;;;;;;5082132;28;20484;-71
2022/01/31 04:12:26;;;;;;;17.83;10.38;;;2.90;99.90;;;;;;5095064;28;20036;-70
2022/01/31 04:14:52;;;;;;;15.30;8.52;;;3.00;99.90;;;;;;5081834;28;20508;-70
2022/01/31 04:17:20;;;;;;;15.65;8.52;;;3.00;99.90;;;;;;5091761;28;20082;-70
2022/01/31 04:19:47;;;;;;;15.13;8.15;;;3.30;99.90;;;;;;5083430;28;20089;-71
2022/01/31 04:22:16;;;;;;;18.73;9.63;;;3.10;99.90;;;;;;5100056;28;20044;-71
2022/01/31 04:24:42;;;;;;;17.40;9.45;;;3.30;99.90;;;;;;5092405;28;20048;-70
2022/01/31 04:27:15;;;;;;;17.42;9.05;;;3.30;99.90;;;;;;5081371;28;20276;-71
2022/01/31 04:29:43;;;;;;;16.75;8.77;;;3.40;99.90;;;;;;5072923;28;20049;-70
2022/01/31 04:32:08;;;;;;;23.33;9.25;;;3.40;99.90;;;;;;5082657;28;20123;-71
2022/01/31 04:34:34;;;;;;;19.30;9.35;;;3.50;99.90;;;;;;5092020;28;20080;-70
2022/01/31 04:37:01;;;;;;;22.63;7.90;;;3.60;99.90;;;;;;5091854;28;20220;-69
2022/01/31 04:39:29;;;;;;;13.60;6.30;;;3.60;99.90;;;;;;5082352;28;20572;-69
2022/01/31 04:41:55;;;;;;;19.77;5.97;;;3.70;99.90;;;;;;5085048;28;20092;-69
2022/01/31 04:44:21;;;;;;;18.15;6.90;;;3.80;99.90;;;;;;5095881;28;20059;-67
2022/01/31 04:46:49;;;;;;;13.57;5.70;;;3.90;99.90;;;;;;5085258;28;20041;-69
2022/01/31 04:49:16;;;;;;;9.55;1.88;;;3.90;99.90;;;;;;5080719;28;20106;-69
2022/01/31 04:51:42;;;;;;;4.55;1.00;;;3.50;99.90;;;;;;5080409;28;20041;-69
2022/01/31 04:54:08;;;;;;;2.78;0.88;;;3.20;99.90;;;;;;5084394;28;20078;-68
2022/01/31 04:56:35;;;;;;;3.20;0.90;;;3.20;99.90;;;;;;5091163;28;20040;-69
2022/01/31 04:59:02;;;;;;;4.10;1.00;;;3.50;99.90;;;;;;5080179;28;20078;-69
2022/01/31 05:01:28;;;;;;;4.40;0.88;;;3.40;99.90;;;;;;5099226;28;20059;-68
2022/01/31 05:03:54;;;;;;;5.53;1.35;;;3.40;99.90;;;;;;5084528;28;20074;-69
2022/01/31 05:06:30;;;;;;;5.78;1.27;;;3.50;99.90;;;;;;5091864;28;20546;-67
2022/01/31 05:08:56;;;;;;;8.07;1.60;;;3.70;99.90;;;;;;5066050;28;20053;-69
2022/01/31 05:11:22;;;;;;;9.35;2.05;;;4.00;99.90;;;;;;5060909;28;20140;-68
2022/01/31 05:13:47;;;;;;;5.78;1.63;;;3.50;99.90;;;;;;5063359;28;20040;-69
2022/01/31 05:16:13;;;;;;;19.45;3.33;;;3.60;99.90;;;;;;5061528;28;20080;-69
2022/01/31 05:18:39;;;;;;;13.57;3.55;;;3.60;99.90;;;;;;5072626;28;20504;-69
2022/01/31 05:21:05;;;;;;;7.45;2.25;;;3.80;99.90;;;;;;5060217;28;20134;-70
2022/01/31 05:23:32;;;;;;;17.05;2.70;;;3.80;99.90;;;;;;5060522;28;20136;-70
2022/01/31 05:25:58;;;;;;;5.60;1.67;;;3.90;99.90;;;;;;5061173;28;20059;-68
2022/01/31 05:28:24;;;;;;;12.82;3.97;;;4.00;99.90;;;;;;5061023;28;20037;-66
2022/01/31 05:30:49;;;;;;;36.35;2.83;;;4.00;99.90;;;;;;5063353;28;20044;-68
2022/01/31 05:33:15;;;;;;;12.70;2.13;;;4.10;99.90;;;;;;5075642;28;20097;-68
2022/01/31 05:35:41;;;;;;;9.15;2.20;;;4.20;99.90;;;;;;5065604;28;20059;-66
2022/01/31 05:38:07;;;;;;;13.02;2.67;;;4.10;99.90;;;;;;5062741;28;20049;-70
2022/01/31 05:40:32;;;;;;;12.77;3.47;;;4.40;99.90;;;;;;5065812;28;20135;-69
2022/01/31 05:42:58;;;;;;;16.70;3.15;;;4.10;99.90;;;;;;5061681;28;20116;-68
2022/01/31 05:45:24;;;;;;;20.23;3.72;;;4.10;99.90;;;;;;5063799;28;20066;-70
2022/01/31 05:47:50;;;;;;;14.70;2.40;;;4.10;99.90;;;;;;5067525;28;20067;-68
2022/01/31 05:50:16;;;;;;;10.18;2.55;;;4.40;99.90;;;;;;5059456;28;20053;-69
2022/01/31 05:52:42;;;;;;;8.63;2.80;;;4.20;99.90;;;;;;5062380;28;20052;-69
2022/01/31 05:55:08;;;;;;;13.48;3.65;;;4.50;99.90;;;;;;5065416;28;20052;-68
2022/01/31 05:57:34;;;;;;;7.53;1.55;;;4.20;99.90;;;;;;5075540;28;20040;-69
2022/01/31 06:00:00;;;;;;;7.03;1.60;;;4.10;99.90;;;;;;5064155;28;20143;-68
2022/01/31 06:02:25;;;;;;;4.68;1.30;;;4.00;99.90;;;;;;5061288;28;20060;-67
2022/01/31 06:04:51;;;;;;;2.97;1.02;;;3.80;99.90;;;;;;5069386;28;20037;-68
2022/01/31 06:07:17;;;;;;;2.95;0.80;;;3.70;99.90;;;;;;5058192;28;20048;-67
2022/01/31 06:09:42;;;;;;;4.57;1.20;;;3.70;99.90;;;;;;5061852;28;20048;-67
2022/01/31 06:12:11;;;;;;;1.35;0.68;;;3.60;99.90;;;;;;5066046;28;20044;-67
2022/01/31 06:14:36;;;;;;;3.05;0.80;;;3.60;99.90;;;;;;5069635;28;20104;-68
2022/01/31 06:17:03;;;;;;;2.13;0.70;;;3.60;99.90;;;;;;5071184;28;20076;-67
2022/01/31 06:19:29;;;;;;;2.33;0.70;;;3.50;99.90;;;;;;5059132;28;20060;-69
2022/01/31 06:21:55;;;;;;;3.20;0.98;;;3.80;99.90;;;;;;5060404;28;20071;-69
2022/01/31 06:24:21;;;;;;;4.78;1.20;;;3.50;99.90;;;;;;5062585;28;20405;-70
2022/01/31 06:26:47;;;;;;;6.22;1.33;;;3.50;99.90;;;;;;5064498;28;20052;-68
2022/01/31 06:29:12;;;;;;;1.45;0.65;;;3.50;99.90;;;;;;5058195;28;20052;-67
2022/01/31 06:31:38;;;;;;;6.35;1.23;;;3.40;99.90;;;;;;5063296;28;20477;-68
2022/01/31 06:34:04;;;;;;;2.47;0.65;;;3.50;99.90;;;;;;5071639;28;20072;-68
2022/01/31 06:36:30;;;;;;;5.18;0.75;;;3.50;99.90;;;;;;5043167;28;20081;-68
2022/01/31 06:38:56;;;;;;;2.95;1.02;;;3.50;99.90;;;;;;5060857;28;20095;-67
2022/01/31 06:41:23;;;;;;;4.40;1.00;;;4.00;99.90;;;;;;5067115;28;20539;-68
2022/01/31 06:43:51;;;;;;;4.55;0.98;;;3.70;99.90;;;;;;5061196;28;20045;-69
2022/01/31 06:46:17;;;;;;;3.95;0.80;;;4.00;99.90;;;;;;5059405;28;20048;-68
2022/01/31 06:48:43;;;;;;;9.55;1.75;;;3.50;99.90;;;;;;5065772;28;20477;-68
2022/01/31 06:51:08;;;;;;;3.80;1.00;;;3.50;99.90;;;;;;5065763;28;20052;-68
2022/01/31 06:53:35;;;;;;;10.13;1.70;;;3.50;99.90;;;;;;5073689;28;20056;-69
2022/01/31 06:56:01;;;;;;;4.32;1.00;;;3.50;99.90;;;;;;5063822;28;20052;-68
2022/01/31 06:58:27;;;;;;;5.03;1.20;;;3.60;99.90;;;;;;5076198;28;20792;-69
2022/01/31 07:00:54;;;;;;;5.53;1.33;;;3.70;99.90;;;;;;5063047;28;20049;-69
2022/01/31 07:03:20;;;;;;;4.50;1.25;;;3.70;99.90;;;;;;5063085;28;20075;-69
2022/01/31 07:05:47;;;;;;;4.35;0.85;;;3.70;99.90;;;;;;5084778;28;20079;-69
2022/01/31 07:08:13;;;;;;;8.13;1.30;;;3.80;99.90;;;;;;5075040;28;20067;-69
2022/01/31 07:10:40;;;;;;;6.75;1.58;;;3.80;99.90;;;;;;5073663;28;20044;-68
2022/01/31 07:13:24;;;;;;;5.55;1.38;;;4.00;99.90;;;;;;5068982;28;20055;-68
2022/01/31 07:15:49;;;;;;;6.50;1.15;;;3.90;99.90;;;;;;5083137;28;20075;-68
2022/01/31 07:18:15;;;;;;;9.00;1.60;;;3.90;99.90;;;;;;5074516;28;20033;-66
2022/01/31 07:20:43;;;;;;;11.40;2.15;;;3.90;99.90;;;;;;5061697;28;20484;-68
2022/01/31 07:23:26;;;;;;;7.70;1.83;;;3.90;99.90;;;;;;5064432;28;20053;-68
2022/01/31 07:25:52;;;;;;;11.98;2.85;;;3.90;99.90;;;;;;5075017;28;20146;-68
2022/01/31 07:28:19;;;;;;;8.32;2.13;;;3.90;99.90;;;;;;5063502;28;20171;-66
2022/01/31 07:30:48;;;;;;;9.25;3.03;;;4.30;99.90;;;;;;5066830;28;20059;-66
2022/01/31 07:33:15;;;;;;;7.43;1.58;;;4.00;99.90;;;;;;5075925;28;20112;-69
2022/01/31 07:35:42;;;;;;;5.65;1.80;;;4.10;99.90;;;;;;5083297;28;20075;-67
2022/01/31 07:38:10;;;;;;;10.18;2.20;;;4.10;99.90;;;;;;5080293;28;20127;-69
2022/01/31 07:40:36;;;;;;;8.18;1.50;;;4.10;99.90;;;;;;5074145;28;20049;-67
2022/01/31 07:43:02;;;;;;;8.35;1.52;;;4.10;99.90;;;;;;5082860;28;20385;-67
2022/01/31 07:45:28;;;;;;;8.07;1.98;;;4.10;99.90;;;;;;5071503;28;20033;-66
2022/01/31 07:47:53;;;;;;;8.10;1.83;;;4.30;99.90;;;;;;5063213;28;20045;-66
2022/01/31 07:50:19;;;;;;;7.60;1.48;;;4.10;99.90;;;;;;5071769;28;20103;-67
2022/01/31 07:52:45;;;;;;;12.90;2.20;;;4.10;99.90;;;;;;5062659;28;20071;-66
2022/01/31 07:55:12;;;;;;;7.05;1.45;;;4.10;99.90;;;;;;5075103;28;20053;-66
2022/01/31 07:57:40;;;;;;;9.70;1.55;;;4.10;99.90;;;;;;5073415;28;20060;-67
2022/01/31 08:00:08;;;;;;;5.22;1.02;;;4.10;99.90;;;;;;5063706;28;20037;-65
2022/01/31 08:02:34;;;;;;;4.68;1.08;;;4.10;99.90;;;;;;5075330;28;20381;-66
2022/01/31 08:05:00;;;;;;;7.70;1.40;;;4.40;99.90;;;;;;5075314;28;20044;-68
2022/01/31 08:07:26;;;;;;;3.63;0.98;;;4.10;99.90;;;;;;5078014;28;20067;-67
2022/01/31 08:09:51;;;;;;;10.15;2.72;;;4.00;99.90;;;;;;5063372;28;20052;-69
2022/01/31 08:12:17;;;;;;;8.23;1.65;;;4.10;99.90;;;;;;5068565;28;20068;-68
2022/01/31 08:14:44;;;;;;;7.40;1.42;;;4.00;99.90;;;;;;5063144;28;20049;-68
2022/01/31 08:17:10;;;;;;;4.68;1.13;;;4.00;99.90;;;;;;5073692;28;20058;-67
2022/01/31 08:19:36;;;;;;;5.72;1.40;;;4.00;99.90;;;;;;5073934;28;20080;-68
2022/01/31 08:22:01;;;;;;;7.28;1.30;;;4.00;99.90;;;;;;5044892;28;20044;-67
2022/01/31 08:24:27;;;;;;;8.95;1.25;;;4.00;99.90;;;;;;5070147;28;20047;-68
2022/01/31 08:26:53;;;;;;;7.07;1.40;;;4.10;99.90;;;;;;5059834;28;20044;-68
2022/01/31 08:29:30;;;;;;;6.95;1.25;;;4.00;99.90;;;;;;5074069;28;20048;-69
2022/01/31 08:31:57;;;;;;;6.07;1.35;;;4.10;99.90;;;;;;5076858;28;20045;-68
2022/01/31 08:37:07;;;;;;;5.57;1.35;;;4.10;99.90;;;;;;5080803;28;20135;-67
2022/01/31 08:39:33;;;;;;;3.28;1.10;;;4.10;99.90;;;;;;5069328;28;20079;-68
2022/01/31 08:41:59;;;;;;;7.10;1.50;;;4.30;99.90;;;;;;5059434;28;20048;-67
2022/01/31 08:44:25;;;;;;;4.75;1.05;;;4.30;99.90;;;;;;5077821;28;20083;-67
2022/01/31 08:46:53;;;;;;;6.15;1.40;;;4.30;99.90;;;;;;5072438;28;20052;-68
2022/01/31 08:49:19;;;;;;;6.18;1.45;;;4.20;99.90;;;;;;5072538;28;20040;-67
2022/01/31 08:51:46;;;;;;;6.20;1.20;;;4.20;99.90;;;;;;5081215;28;20036;-67
2022/01/31 08:54:13;;;;;;;7.22;1.40;;;4.30;99.90;;;;;;5064846;28;20108;-67
2022/01/31 08:56:43;;;;;;;7.43;1.50;;;4.30;99.90;;;;;;5065858;28;20053;-67
2022/01/31 08:59:16;;;;;;;4.50;1.50;;;4.50;99.90;;;;;;5071235;28;20488;-67
2022/01/31 09:01:52;;;;;;;6.03;1.95;;;4.40;99.90;;;;;;5081216;28;20065;-66
2022/01/31 09:04:33;;;;;;;;;;;4.50;99.90;;;;;;5068548;28;20048;-67
2022/01/31 09:07:01;;;;;;;10.13;1.50;;;4.50;99.90;;;;;;5065319;28;19931;-66
2022/01/31 09:09:27;;;;;;;8.20;1.60;;;4.60;99.90;;;;;;5069422;28;20041;-67
2022/01/31 09:11:52;;;;;;;4.32;1.15;;;4.60;99.90;;;;;;5068133;28;20819;-67
2022/01/31 09:14:18;;;;;;;7.95;1.77;;;4.80;99.90;;;;;;5079171;28;20041;-67
2022/01/31 09:16:45;;;;;;;6.05;1.60;;;4.80;99.90;;;;;;5059572;28;20037;-67
2022/01/31 09:19:11;;;;;;;7.07;2.10;;;4.80;99.90;;;;;;5071132;28;20229;-67
2022/01/31 09:21:36;;;;;;;7.75;1.98;;;4.90;99.90;;;;;;5071183;28;20598;-67
2022/01/31 09:24:03;;;;;;;5.82;1.77;;;4.90;99.90;;;;;;5068589;28;20074;-67
2022/01/31 09:26:29;;;;;;;6.50;1.50;;;5.00;99.90;;;;;;5060834;28;20056;-68
2022/01/31 09:28:55;;;;;;;7.95;1.20;;;5.00;99.90;;;;;;5062798;28;20069;-67
2022/01/31 09:31:21;;;;;;;7.22;1.85;;;5.10;99.90;;;;;;5093010;28;20544;-68
2022/01/31 09:33:48;;;;;;;10.13;2.50;;;5.10;99.90;;;;;;5079423;28;20033;-68
2022/01/31 09:36:14;;;;;;;5.30;1.50;;;5.00;99.90;;;;;;5068859;28;20138;-68
2022/01/31 09:38:41;;;;;;;10.15;2.30;;;5.10;99.90;;;;;;5063449;28;20591;-67
2022/01/31 09:41:09;;;;;;;5.03;1.05;;;5.20;99.90;;;;;;5059896;28;20049;-68
2022/01/31 09:44:04;;;;;;;9.77;1.85;;;5.10;99.90;;;;;;5061155;28;20060;-67
2022/01/31 09:48:55;;;;;;;5.13;1.33;;;5.10;99.90;;;;;;5060879;28;20045;-67
2022/01/31 09:51:22;;;;;;;3.67;1.08;;;5.10;99.90;;;;;;5059306;28;20192;-67
2022/01/31 09:53:55;;;;;;;6.45;1.38;;;5.20;99.90;;;;;;5059286;28;20064;-67
2022/01/31 09:56:24;;;;;;;5.35;1.42;;;5.30;99.90;;;;;;5065275;28;20045;-67
2022/01/31 09:58:51;;;;;;;6.93;1.55;;;5.40;99.90;;;;;;5057026;28;20148;-67
2022/01/31 10:01:18;;;;;;;8.05;1.30;;;5.30;99.90;;;;;;5066890;28;20060;-68
2022/01/31 10:03:58;;;;;;;9.13;1.15;;;5.40;99.90;;;;;;5074128;28;20049;-67
2022/01/31 10:06:32;;;;;;;6.22;1.13;;;5.40;99.90;;;;;;5059451;28;20076;-68
2022/01/31 10:09:00;;;;;;;7.30;1.35;;;5.40;99.90;;;;;;5070795;28;20044;-67
2022/01/31 10:11:37;;;;;;;8.77;1.75;;;5.50;99.90;;;;;;5060716;28;20080;-68
2022/01/31 10:16:55;;;;;;;2.85;1.40;;;5.60;99.90;;;;;;5059628;28;20108;-67
2022/01/31 10:19:21;;;;;;;7.28;1.08;;;5.60;99.90;;;;;;5058748;28;20095;-67
2022/01/31 10:21:57;;;;;;;4.35;1.13;;;5.60;99.90;;;;;;5059752;28;20052;-67
2022/01/31 10:24:24;;;;;;;4.70;1.25;;;5.60;99.90;;;;;;5061369;28;20118;-67
2022/01/31 10:26:51;;;;;;;2.92;1.10;;;5.60;99.90;;;;;;5083115;28;20044;-67
2022/01/31 10:29:19;;;;;;;5.40;1.33;;;5.70;99.90;;;;;;5061981;28;20474;-67
2022/01/31 10:31:57;;;;;;;6.82;1.58;;;5.60;99.90;;;;;;5074372;28;20039;-67
2022/01/31 10:34:25;;;;;;;5.45;1.30;;;5.50;99.90;;;;;;5067055;28;20108;-67
2022/01/31 10:36:52;;;;;;;5.30;1.15;;;5.50;99.90;;;;;;5079340;28;20058;-67
2022/01/31 10:56:38;;;;;;;7.43;1.20;;;7.90;99.90;;;;;;5065458;28;20041;-67
2022/01/31 10:59:09;;;;;;;7.95;2.75;;;7.70;99.90;;;;;;5069371;28;20044;-68
2022/01/31 11:01:38;;;;;;;4.68;1.08;;;7.30;99.90;;;;;;5063276;28;20141;-67
2022/01/31 11:04:06;;;;;;;3.92;1.10;;;6.80;99.90;;;;;;5061581;28;20055;-67
2022/01/31 11:06:33;;;;;;;6.05;1.20;;;6.50;99.90;;;;;;5074737;28;20044;-67
2022/01/31 11:09:10;;;;;;;4.82;1.25;;;6.40;99.90;;;;;;5063448;28;20045;-68
2022/01/31 11:11:39;;;;;;;8.13;1.95;;;6.30;99.90;;;;;;5061031;28;20136;-68
2022/01/31 11:14:06;;;;;;;7.82;2.05;;;6.20;99.90;;;;;;5066132;28;20045;-67
2022/01/31 11:16:33;;;;;;;7.50;1.88;;;6.10;99.90;;;;;;5075844;28;20416;-67
2022/01/31 11:19:02;;;;;;;11.25;2.20;;;6.00;99.90;;;;;;5071333;28;20037;-67
2022/01/31 11:21:32;;;;;;;5.13;1.25;;;6.00;99.90;;;;;;5061712;28;20559;-67
2022/01/31 11:24:02;;;;;;;6.07;1.55;;;6.00;99.90;;;;;;5061350;28;20068;-67
2022/01/31 11:26:39;;;;;;;5.90;1.33;;;6.00;99.90;;;;;;5082154;28;20048;-67
2022/01/31 11:29:07;;;;;;;5.80;1.58;;;6.10;99.90;;;;;;5065568;28;20569;-67
2022/01/31 11:31:38;;;;;;;4.72;1.60;;;6.10;99.90;;;;;;5071526;28;20041;-67
2022/01/31 11:34:06;;;;;;;7.38;1.30;;;6.10;99.90;;;;;;5064115;28;20104;-67
2022/01/31 11:36:36;;;;;;;8.02;1.30;;;6.10;99.90;;;;;;5069913;28;20060;-67
2022/01/31 11:39:09;;;;;;;9.77;1.75;;;6.10;99.90;;;;;;5076348;28;20089;-67
2022/01/31 11:41:41;;;;;;;6.72;1.20;;;6.20;99.90;;;;;;5069814;28;20076;-67
2022/01/31 11:44:24;;;;;;;3.40;1.20;;;6.30;99.90;;;;;;5081074;28;20044;-66
2022/01/31 11:46:50;;;;;;;6.75;1.13;;;6.30;99.90;;;;;;5073014;28;20051;-67
2022/01/31 11:49:18;;;;;;;10.50;1.88;;;6.30;99.90;;;;;;5059833;28;20048;-66
2022/01/31 11:52:03;;;;;;;7.85;1.83;;;6.50;99.90;;;;;;5062036;28;20041;-67
2022/01/31 11:54:30;;;;;;;7.60;1.70;;;6.60;99.90;;;;;;5077567;28;20052;-67
2022/01/31 11:56:56;;;;;;;8.05;1.20;;;6.70;99.90;;;;;;5080370;28;20104;-67
2022/01/31 11:59:23;;;;;;;4.07;1.30;;;6.80;99.90;;;;;;5073751;28;20048;-66
2022/01/31 12:01:51;;;;;;;7.82;1.50;;;6.90;99.90;;;;;;5068865;28;20086;-67
2022/01/31 12:04:22;;;;;;;6.07;1.50;;;7.00;99.90;;;;;;5083650;28;20052;-67
2022/01/31 12:06:48;;;;;;;7.38;1.45;;;7.30;99.90;;;;;;5062525;28;20055;-67
2022/01/31 12:09:17;;;;;;;5.35;1.20;;;7.00;99.90;;;;;;5071034;28;20043;-67
2022/01/31 12:12:02;;;;;;;7.03;1.45;;;6.80;99.90;;;;;;5066329;28;20070;-67
2022/01/31 12:14:41;;;;;;;8.15;2.35;;;6.70;99.90;;;;;;5073573;28;20041;-67
2022/01/31 12:18:24;;;;;;;5.55;1.25;;;6.60;99.90;;;;;;5070274;28;20531;-66
2022/01/31 12:24:10;;;;;;;3.80;1.10;;;6.60;99.90;;;;;;5059777;28;20052;-67
2022/01/31 12:26:49;;;;;;;5.13;1.63;;;6.80;99.90;;;;;;5060004;28;20080;-67
2022/01/31 12:29:18;;;;;;;8.93;1.52;;;6.80;99.90;;;;;;5070337;28;20036;-67
2022/01/31 12:31:48;;;;;;;10.55;1.60;;;6.70;99.90;;;;;;5075720;28;20043;-67
2022/01/31 12:34:17;;;;;;;9.50;1.23;;;6.70;99.90;;;;;;5059339;28;20128;-67
2022/01/31 12:36:43;;;;;;;7.43;1.60;;;6.70;99.90;;;;;;5073448;28;20120;-67
2022/01/31 12:39:31;;;;;;;12.50;2.70;;;6.70;99.90;;;;;;5081334;28;20044;-67
2022/01/31 12:42:03;;;;;;;6.32;1.80;;;6.90;99.90;;;;;;5071734;28;20044;-67
2022/01/31 12:44:32;;;;;;;8.52;1.73;;;6.90;99.90;;;;;;5072459;28;20040;-67
2022/01/31 12:47:15;;;;;;;10.05;1.52;;;6.80;99.90;;;;;;5063870;28;20045;-67
2022/01/31 12:49:45;;;;;;;11.18;1.67;;;6.70;99.90;;;;;;5059034;28;20045;-68
2022/01/31 12:52:12;;;;;;;12.75;1.85;;;6.60;99.90;;;;;;5070611;28;20052;-67
2022/01/31 12:54:40;;;;;;;9.55;1.55;;;6.60;99.90;;;;;;5067051;28;20076;-66
2022/01/31 12:57:11;;;;;;;7.60;1.85;;;6.90;99.90;;;;;;5061243;28;20065;-67
2022/01/31 12:59:39;;;;;;;9.23;2.50;;;7.10;99.90;;;;;;5075686;28;20052;-67
2022/01/31 13:02:11;;;;;;;9.82;1.80;;;7.10;99.90;;;;;;5063156;28;20139;-67
2022/01/31 13:04:38;;;;;;;10.20;2.20;;;6.90;99.90;;;;;;5067047;28;20044;-68
2022/01/31 13:07:09;;;;;;;9.35;2.15;;;6.80;99.90;;;;;;5058455;28;20116;-67
2022/01/31 13:09:38;;;;;;;10.32;2.63;;;6.70;99.90;;;;;;5063434;28;20056;-67
2022/01/31 13:12:15;;;;;;;9.93;2.13;;;6.90;99.90;;;;;;5066048;28;20056;-67
2022/01/31 13:14:49;;;;;;;12.38;1.92;;;7.10;99.90;;;;;;5060323;28;20539;-67
2022/01/31 13:17:20;;;;;;;10.68;1.88;;;7.30;99.90;;;;;;5066635;28;20519;-67
2022/01/31 13:19:52;;;;;;;6.35;1.60;;;7.30;99.90;;;;;;5070414;28;20066;-67
2022/01/31 13:22:30;;;;;;;10.32;2.10;;;7.10;99.90;;;;;;5060664;28;20132;-67
2022/01/31 13:24:58;;;;;;;10.55;2.08;;;7.00;99.90;;;;;;5071048;28;20508;-68
2022/01/31 13:27:34;;;;;;;9.45;2.45;;;6.90;99.90;;;;;;5059678;28;20052;-66
2022/01/31 13:30:00;;;;;;;11.13;2.07;;;6.90;99.90;;;;;;5068143;28;20377;-67
2022/01/31 13:32:35;;;;;;;6.85;1.77;;;7.10;99.90;;;;;;5071421;28;20044;-67